Time;durP1;ratioP1;P1;durP2;ratioP2;P2;SDS_P1;SDS_P2;PMS_P1;PMS_P2;Temp;Humidity;BMP_temperature;BMP_pressure;BME280_temperature;BME280_humidity;BME280_pressure;Samples;Min_cycle;Max_cycle;Signal;HPM_P1;HPM_P2
2021/12/31 00:00:20;;;;;;;2.40;0.80;;;14.70;64.60;;;;;;7366254;19;20380;-41
2021/12/31 00:02:49;;;;;;;0.93;0.60;;;14.80;65.30;;;;;;7359986;19;21611;-41
2021/12/31 00:05:19;;;;;;;0.73;0.50;;;14.80;65.10;;;;;;7356036;19;21093;-42
2021/12/31 00:07:51;;;;;;;0.97;0.70;;;14.80;64.80;;;;;;7368228;19;20375;-41
2021/12/31 00:10:21;;;;;;;1.37;0.90;;;14.70;64.80;;;;;;7354422;19;20432;-41
2021/12/31 00:12:50;;;;;;;1.73;0.73;;;14.70;64.80;;;;;;7361793;19;20382;-42
2021/12/31 00:15:20;;;;;;;1.93;0.90;;;14.70;64.80;;;;;;7361222;19;20416;-41
2021/12/31 00:17:52;;;;;;;0.80;0.70;;;14.70;65.10;;;;;;7356900;19;20404;-41
2021/12/31 00:20:24;;;;;;;2.10;0.60;;;14.70;65.10;;;;;;7361716;19;20375;-41
2021/12/31 00:23:06;;;;;;;0.80;0.70;;;14.70;65.70;;;;;;7365417;19;21257;-41
2021/12/31 00:25:40;;;;;;;1.30;0.90;;;14.70;65.50;;;;;;7369186;19;20372;-41
2021/12/31 00:28:10;;;;;;;1.00;0.70;;;14.70;65.80;;;;;;7362309;19;20389;-41
2021/12/31 00:30:41;;;;;;;1.63;0.93;;;14.70;66.00;;;;;;7367185;19;20387;-41
2021/12/31 00:33:11;;;;;;;0.80;0.80;;;14.60;66.30;;;;;;7365686;19;20388;-41
2021/12/31 00:35:41;;;;;;;2.60;0.70;;;14.60;66.50;;;;;;7362777;19;21029;-41
2021/12/31 00:38:13;;;;;;;1.27;0.93;;;14.60;66.70;;;;;;7361311;19;20384;-41
2021/12/31 00:40:43;;;;;;;0.87;0.80;;;14.60;67.10;;;;;;7368469;19;20379;-41
2021/12/31 00:43:13;;;;;;;1.10;0.80;;;14.50;67.40;;;;;;7362126;19;21323;-41
2021/12/31 00:45:45;;;;;;;1.10;0.87;;;14.50;68.10;;;;;;7364604;19;20380;-41
2021/12/31 00:48:15;;;;;;;1.67;1.00;;;14.50;68.90;;;;;;7357603;19;20373;-41
2021/12/31 00:50:45;;;;;;;1.30;1.20;;;14.50;69.00;;;;;;7353002;19;22324;-41
2021/12/31 00:53:17;;;;;;;2.00;1.03;;;14.50;69.10;;;;;;7353080;19;20388;-41
2021/12/31 00:55:46;;;;;;;1.03;0.80;;;14.40;69.10;;;;;;7353500;19;20387;-41
2021/12/31 00:58:16;;;;;;;1.80;0.90;;;14.40;69.20;;;;;;7370685;19;20409;-41
2021/12/31 01:00:46;;;;;;;1.27;0.80;;;14.40;69.40;;;;;;7360332;19;20391;-41
2021/12/31 01:03:17;;;;;;;1.10;0.70;;;14.40;69.30;;;;;;7363351;19;20375;-41
2021/12/31 01:05:46;;;;;;;1.53;0.70;;;14.40;69.50;;;;;;7352558;19;20391;-41
2021/12/31 01:08:18;;;;;;;2.20;1.00;;;14.30;69.80;;;;;;7358115;19;20379;-41
2021/12/31 01:10:51;;;;;;;1.23;0.60;;;14.30;69.80;;;;;;7357449;19;20428;-41
2021/12/31 01:13:31;;;;;;;1.93;1.30;;;14.30;69.60;;;;;;7371209;19;20747;-41
2021/12/31 01:16:02;;;;;;;3.03;1.13;;;14.20;68.90;;;;;;7360622;19;20380;-41
2021/12/31 01:19:45;;;;;;;1.17;0.73;;;14.20;69.40;;;;;;7369285;19;20380;-41
2021/12/31 01:21:34;;;;;;;0.90;0.80;;;14.10;70.30;;;;;;7369281;19;20383;-41
2021/12/31 01:24:07;;;;;;;1.70;0.90;;;14.20;70.50;;;;;;7366720;19;20387;-41
2021/12/31 01:26:36;;;;;;;1.50;1.17;;;14.10;70.50;;;;;;7364072;19;20902;-41
2021/12/31 01:29:08;;;;;;;1.23;1.10;;;14.20;71.30;;;;;;7361522;19;20976;-41
2021/12/31 01:31:38;;;;;;;1.13;1.03;;;14.10;70.80;;;;;;7368552;19;20384;-41
2021/12/31 01:34:08;;;;;;;3.03;0.83;;;14.10;70.70;;;;;;7361823;19;20380;-41
2021/12/31 01:36:39;;;;;;;1.67;1.23;;;14.10;71.20;;;;;;7370455;19;20395;-41
2021/12/31 01:39:11;;;;;;;0.93;0.90;;;14.00;71.40;;;;;;7358332;19;20397;-41
2021/12/31 01:41:42;;;;;;;1.53;1.20;;;13.90;71.60;;;;;;7376173;19;20375;-41
2021/12/31 01:44:12;;;;;;;1.07;0.97;;;13.80;72.30;;;;;;7368473;19;20380;-41
2021/12/31 01:46:56;;;;;;;2.10;0.80;;;13.70;72.50;;;;;;7372275;19;20372;-41
2021/12/31 01:49:32;;;;;;;1.70;1.10;;;13.70;71.70;;;;;;7372378;19;20425;-41
2021/12/31 01:52:02;;;;;;;2.13;1.27;;;13.50;72.60;;;;;;7370958;19;20364;-41
2021/12/31 01:54:38;;;;;;;2.70;1.20;;;13.50;72.90;;;;;;7365573;19;20376;-41
2021/12/31 01:57:11;;;;;;;1.13;1.03;;;13.50;73.40;;;;;;7375515;19;20922;-41
2021/12/31 01:59:43;;;;;;;0.77;0.77;;;13.40;73.10;;;;;;7366288;19;20920;-41
2021/12/31 02:02:15;;;;;;;1.07;0.97;;;13.40;73.30;;;;;;7373932;19;20368;-41
2021/12/31 02:04:44;;;;;;;2.17;1.03;;;13.40;73.00;;;;;;7378977;19;20367;-41
2021/12/31 02:07:14;;;;;;;2.03;1.27;;;13.30;73.30;;;;;;7370735;19;20380;-42
2021/12/31 02:09:49;;;;;;;2.00;1.57;;;13.20;73.50;;;;;;7375564;19;20398;-41
2021/12/31 02:12:20;;;;;;;1.50;1.17;;;13.20;73.90;;;;;;7369690;19;20424;-41
2021/12/31 02:14:51;;;;;;;1.97;1.40;;;13.10;73.60;;;;;;7376384;19;20443;-41
2021/12/31 02:17:21;;;;;;;2.60;1.40;;;13.10;73.70;;;;;;7324737;19;20384;-41
2021/12/31 02:20:01;;;;;;;1.67;1.03;;;13.00;74.00;;;;;;7372722;19;21335;-41
2021/12/31 02:22:33;;;;;;;1.17;0.90;;;13.00;74.00;;;;;;7375199;19;20816;-41
2021/12/31 02:25:03;;;;;;;1.90;0.93;;;12.90;73.90;;;;;;7373444;19;20419;-41
2021/12/31 02:27:32;;;;;;;1.30;0.93;;;12.80;74.50;;;;;;7373589;19;20798;-41
2021/12/31 02:30:02;;;;;;;3.30;1.00;;;12.80;74.50;;;;;;7378367;19;20385;-36
2021/12/31 02:32:31;;;;;;;2.40;1.37;;;12.80;74.30;;;;;;7370665;19;20368;-37
2021/12/31 02:35:04;;;;;;;3.17;1.10;;;12.80;74.40;;;;;;7367525;19;20394;-37
2021/12/31 02:37:33;;;;;;;3.07;1.13;;;12.70;74.60;;;;;;7365216;19;20400;-37
2021/12/31 02:40:05;;;;;;;1.30;1.20;;;12.70;74.80;;;;;;7372194;19;20380;-36
2021/12/31 02:42:35;;;;;;;1.90;1.20;;;12.70;74.70;;;;;;7368368;19;20938;-35
2021/12/31 02:45:06;;;;;;;1.40;0.80;;;12.70;74.40;;;;;;7372610;19;20836;-36
2021/12/31 02:47:42;;;;;;;3.20;1.20;;;12.70;74.40;;;;;;7370604;19;20380;-37
2021/12/31 02:50:16;;;;;;;2.90;1.83;;;12.70;74.40;;;;;;7368618;19;20361;-36
2021/12/31 02:52:48;;;;;;;1.40;0.90;;;12.70;74.20;;;;;;7368476;19;20951;-37
2021/12/31 02:55:19;;;;;;;1.30;0.93;;;12.70;74.20;;;;;;7349719;19;20368;-36
2021/12/31 02:57:51;;;;;;;2.33;1.40;;;12.60;74.30;;;;;;7370343;19;20775;-36
2021/12/31 03:00:21;;;;;;;2.10;0.90;;;12.50;74.70;;;;;;7353803;19;20954;-41
2021/12/31 03:02:51;;;;;;;2.50;0.93;;;12.50;74.70;;;;;;7371838;19;20414;-41
2021/12/31 03:05:26;;;;;;;4.40;1.20;;;12.50;74.90;;;;;;7369352;19;20391;-41
2021/12/31 03:07:58;;;;;;;1.87;1.77;;;12.40;75.00;;;;;;7367776;19;20379;-41
2021/12/31 03:10:29;;;;;;;0.87;0.87;;;12.40;75.00;;;;;;7355970;19;20440;-41
2021/12/31 03:12:59;;;;;;;1.33;0.97;;;12.40;75.00;;;;;;7364982;19;20404;-41
2021/12/31 03:15:30;;;;;;;1.10;0.90;;;12.40;75.00;;;;;;7366607;19;20383;-41
2021/12/31 03:18:03;;;;;;;1.27;1.00;;;12.40;75.20;;;;;;7373312;19;21329;-41
2021/12/31 03:20:41;;;;;;;0.70;0.70;;;12.30;75.20;;;;;;7363985;19;21441;-41
2021/12/31 03:23:11;;;;;;;2.67;1.37;;;12.20;75.40;;;;;;7374976;19;20387;-41
2021/12/31 03:25:41;;;;;;;2.80;1.33;;;12.20;75.70;;;;;;7372579;19;20930;-41
2021/12/31 03:28:10;;;;;;;1.80;1.27;;;12.10;75.90;;;;;;7366962;19;20387;-41
2021/12/31 03:30:40;;;;;;;1.70;1.13;;;12.00;76.10;;;;;;7372173;19;20420;-41
2021/12/31 03:33:09;;;;;;;1.77;0.90;;;12.00;76.40;;;;;;7374119;19;20364;-41
2021/12/31 03:35:42;;;;;;;1.90;1.00;;;11.90;76.40;;;;;;7373723;19;20720;-41
2021/12/31 03:38:12;;;;;;;2.00;0.83;;;11.80;76.60;;;;;;7370299;19;20718;-41
2021/12/31 03:40:42;;;;;;;1.63;1.10;;;11.80;76.50;;;;;;7362888;19;21030;-41
2021/12/31 03:43:11;;;;;;;3.27;1.20;;;11.70;76.90;;;;;;7357215;19;20380;-41
2021/12/31 03:45:44;;;;;;;2.17;1.67;;;11.70;76.90;;;;;;7364757;19;20435;-41
2021/12/31 03:48:13;;;;;;;1.27;0.90;;;11.70;77.10;;;;;;7364962;19;20720;-41
2021/12/31 03:50:45;;;;;;;4.50;0.93;;;11.50;77.50;;;;;;7369183;19;20384;-41
2021/12/31 03:53:15;;;;;;;1.20;1.10;;;11.50;77.70;;;;;;7366084;19;20372;-41
2021/12/31 03:55:47;;;;;;;1.70;1.13;;;11.50;78.00;;;;;;7366983;19;20368;-42
2021/12/31 03:58:17;;;;;;;20.03;1.93;;;11.30;78.30;;;;;;7366810;19;20415;-41
2021/12/31 04:00:49;;;;;;;5.00;1.10;;;11.30;79.00;;;;;;7368727;19;20376;-41
2021/12/31 04:03:19;;;;;;;1.87;0.90;;;11.20;79.00;;;;;;7362066;19;21251;-41
2021/12/31 04:05:53;;;;;;;1.80;1.00;;;11.20;79.00;;;;;;7360856;19;20396;-41
2021/12/31 04:08:22;;;;;;;3.97;1.20;;;11.20;79.10;;;;;;7363851;19;20374;-42
2021/12/31 04:10:52;;;;;;;4.73;1.17;;;11.70;79.80;;;;;;7354816;19;20998;-36
2021/12/31 04:13:21;;;;;;;0.93;0.80;;;11.20;79.30;;;;;;7363335;19;20393;-36
2021/12/31 04:15:51;;;;;;;1.27;1.17;;;11.20;79.30;;;;;;7365362;19;20380;-37
2021/12/31 04:18:20;;;;;;;1.90;1.63;;;11.20;79.00;;;;;;7356959;19;20380;-37
2021/12/31 04:20:55;;;;;;;1.33;0.97;;;11.30;79.90;;;;;;7363356;19;20646;-36
2021/12/31 04:23:32;;;;;;;5.60;1.60;;;11.30;78.80;;;;;;7372582;19;21213;-36
2021/12/31 04:26:02;;;;;;;1.70;0.83;;;11.30;78.90;;;;;;7361027;19;20439;-36
2021/12/31 04:28:34;;;;;;;2.78;1.38;;;11.20;78.90;;;;;;7366783;19;20373;-36
2021/12/31 04:31:04;;;;;;;1.10;1.00;;;11.20;79.00;;;;;;7363187;19;20492;-37
2021/12/31 04:33:33;;;;;;;2.23;1.00;;;11.30;79.10;;;;;;7366509;19;20915;-36
2021/12/31 04:36:06;;;;;;;1.47;1.33;;;11.20;79.40;;;;;;7367625;19;20923;-36
2021/12/31 04:38:36;;;;;;;2.73;1.23;;;11.30;79.30;;;;;;7367622;19;20935;-35
2021/12/31 04:41:05;;;;;;;2.30;1.33;;;11.30;79.10;;;;;;7363667;19;20380;-41
2021/12/31 04:43:35;;;;;;;1.60;0.97;;;11.30;79.20;;;;;;7364798;19;20387;-42
2021/12/31 04:46:04;;;;;;;2.07;1.40;;;11.30;79.10;;;;;;7362020;19;20797;-41
2021/12/31 04:48:34;;;;;;;2.97;0.97;;;11.30;79.00;;;;;;7362091;19;20409;-41
2021/12/31 04:51:06;;;;;;;1.20;1.10;;;11.20;79.10;;;;;;7358787;19;20379;-41
2021/12/31 04:53:36;;;;;;;4.53;1.50;;;11.20;79.60;;;;;;7367827;19;20409;-41
2021/12/31 04:56:06;;;;;;;3.77;1.10;;;11.20;79.20;;;;;;7352933;19;21040;-41
2021/12/31 04:58:38;;;;;;;2.50;1.80;;;11.10;79.60;;;;;;7361280;19;21477;-41
2021/12/31 05:01:07;;;;;;;1.27;0.90;;;11.10;79.80;;;;;;7364552;19;20379;-41
2021/12/31 05:03:37;;;;;;;1.73;0.80;;;11.40;80.00;;;;;;7362554;19;20384;-41
2021/12/31 05:06:09;;;;;;;2.13;1.20;;;11.00;80.00;;;;;;7371230;19;20372;-41
2021/12/31 05:08:39;;;;;;;4.50;1.23;;;11.00;79.70;;;;;;7379042;19;20721;-41
2021/12/31 05:11:08;;;;;;;1.90;1.20;;;11.00;79.90;;;;;;7364637;19;20432;-37
2021/12/31 05:13:38;;;;;;;2.23;1.33;;;10.90;80.00;;;;;;7371264;19;20364;-37
2021/12/31 05:16:07;;;;;;;4.10;1.30;;;10.90;80.20;;;;;;7371595;19;20376;-37
2021/12/31 05:18:37;;;;;;;1.10;1.00;;;10.90;79.90;;;;;;7370531;19;20987;-37
2021/12/31 05:21:09;;;;;;;1.77;1.40;;;10.90;80.40;;;;;;7373548;19;20131;-36
2021/12/31 05:23:39;;;;;;;2.30;1.30;;;10.90;80.40;;;;;;7370429;19;20368;-37
2021/12/31 05:26:08;;;;;;;3.50;1.30;;;10.90;80.10;;;;;;7372082;19;21081;-36
2021/12/31 05:28:40;;;;;;;2.50;1.17;;;10.90;79.90;;;;;;7370368;19;20464;-37
2021/12/31 05:31:10;;;;;;;1.90;1.30;;;10.90;80.00;;;;;;7367712;19;20823;-36
2021/12/31 05:33:39;;;;;;;1.40;1.20;;;10.90;80.00;;;;;;7372845;19;20379;-35
2021/12/31 05:36:11;;;;;;;3.03;1.00;;;10.80;80.10;;;;;;7365205;19;20890;-36
2021/12/31 05:38:41;;;;;;;2.08;1.25;;;10.80;80.30;;;;;;7371517;19;20380;-36
2021/12/31 05:41:11;;;;;;;1.90;1.50;;;10.80;80.20;;;;;;7366194;19;20128;-41
2021/12/31 05:43:40;;;;;;;1.70;1.60;;;10.80;80.20;;;;;;7371568;19;20375;-42
2021/12/31 05:46:10;;;;;;;4.50;1.10;;;10.80;80.40;;;;;;7368086;19;20138;-41
2021/12/31 05:48:39;;;;;;;1.97;1.40;;;10.70;80.60;;;;;;7367822;19;20138;-41
2021/12/31 05:51:11;;;;;;;2.08;1.30;;;10.70;80.80;;;;;;7367697;19;20383;-41
2021/12/31 05:53:41;;;;;;;2.70;1.30;;;10.70;80.60;;;;;;7366365;19;20626;-42
2021/12/31 05:56:10;;;;;;;1.35;1.17;;;10.70;80.80;;;;;;7362212;19;20727;-41
2021/12/31 05:58:42;;;;;;;1.80;1.10;;;10.60;80.80;;;;;;7368339;19;20513;-41
2021/12/31 06:01:14;;;;;;;2.13;1.10;;;10.80;80.90;;;;;;7365532;19;20591;-41
2021/12/31 06:03:43;;;;;;;2.47;1.20;;;10.80;81.20;;;;;;7367758;19;20765;-40
2021/12/31 06:06:15;;;;;;;1.33;1.23;;;10.80;81.10;;;;;;7371948;19;20135;-41
2021/12/31 06:08:45;;;;;;;2.17;1.10;;;10.80;81.50;;;;;;7370544;19;20915;-41
2021/12/31 06:11:14;;;;;;;1.60;1.13;;;10.80;81.20;;;;;;7358753;19;20160;-36
2021/12/31 06:13:49;;;;;;;1.30;1.20;;;10.80;81.10;;;;;;7367978;19;20387;-36
2021/12/31 06:16:19;;;;;;;5.00;1.00;;;10.80;81.00;;;;;;7363752;19;20127;-36
2021/12/31 06:18:48;;;;;;;7.37;3.50;;;10.80;80.90;;;;;;7362500;19;20356;-37
2021/12/31 06:21:22;;;;;;;4.20;1.13;;;10.80;82.00;;;;;;7362479;19;20395;-36
2021/12/31 06:23:54;;;;;;;1.50;0.97;;;10.80;80.80;;;;;;7361167;19;20877;-37
2021/12/31 06:26:24;;;;;;;2.00;1.30;;;10.80;80.80;;;;;;7371717;19;20420;-36
2021/12/31 06:28:56;;;;;;;2.07;1.40;;;10.70;80.90;;;;;;7374865;19;20368;-36
2021/12/31 06:31:26;;;;;;;1.50;1.40;;;10.60;81.00;;;;;;7367158;19;20760;-36
2021/12/31 06:33:56;;;;;;;1.33;0.90;;;10.60;81.00;;;;;;7370296;19;20372;-37
2021/12/31 06:36:30;;;;;;;3.90;1.33;;;10.60;81.60;;;;;;7373083;19;20510;-35
2021/12/31 06:39:04;;;;;;;1.70;1.10;;;10.60;81.60;;;;;;7368459;19;20914;-36
2021/12/31 06:41:33;;;;;;;1.77;1.10;;;10.60;82.30;;;;;;7367950;19;20388;-37
2021/12/31 06:44:03;;;;;;;3.97;1.43;;;10.60;82.10;;;;;;7367744;19;20415;-36
2021/12/31 06:46:32;;;;;;;3.20;1.40;;;10.70;82.00;;;;;;7357851;19;20380;-36
2021/12/31 06:49:02;;;;;;;1.60;1.25;;;10.70;82.40;;;;;;7370554;19;20364;-37
2021/12/31 06:51:34;;;;;;;1.70;1.23;;;10.80;82.50;;;;;;7370494;19;20124;-36
2021/12/31 06:54:03;;;;;;;1.40;1.10;;;10.80;82.40;;;;;;7369256;19;20384;-37
2021/12/31 06:56:33;;;;;;;1.80;1.20;;;10.80;82.30;;;;;;7355326;19;20372;-37
2021/12/31 06:59:02;;;;;;;1.63;1.00;;;10.80;82.20;;;;;;7364485;19;20384;-36
2021/12/31 07:01:32;;;;;;;1.30;1.20;;;10.80;82.10;;;;;;7370016;19;20368;-36
2021/12/31 07:04:02;;;;;;;1.57;1.17;;;10.80;82.20;;;;;;7372720;19;20376;-35
2021/12/31 07:06:34;;;;;;;4.60;1.67;;;10.80;82.80;;;;;;7364962;19;20898;-37
2021/12/31 07:09:03;;;;;;;2.50;1.73;;;10.80;82.90;;;;;;7366168;19;20427;-37
2021/12/31 07:11:33;;;;;;;1.43;1.30;;;10.80;82.50;;;;;;7357403;19;20436;-41
2021/12/31 07:14:02;;;;;;;3.23;1.47;;;10.90;82.80;;;;;;7362271;19;20376;-41
2021/12/31 07:16:32;;;;;;;1.83;1.37;;;10.90;82.70;;;;;;7371691;19;20377;-41
2021/12/31 07:19:01;;;;;;;1.50;1.20;;;10.90;82.70;;;;;;7372180;19;20368;-41
2021/12/31 07:21:33;;;;;;;2.57;2.23;;;10.90;83.00;;;;;;7372703;19;20450;-41
2021/12/31 07:24:03;;;;;;;2.50;1.60;;;10.90;83.30;;;;;;7371049;19;20387;-41
2021/12/31 07:26:32;;;;;;;3.60;2.50;;;10.90;83.50;;;;;;7368994;19;20383;-41
2021/12/31 07:29:02;;;;;;;1.73;1.30;;;10.90;83.10;;;;;;7368469;19;20372;-41
2021/12/31 07:31:31;;;;;;;2.90;1.70;;;11.00;83.00;;;;;;7368849;19;20854;-41
2021/12/31 07:34:01;;;;;;;7.93;2.47;;;10.90;82.90;;;;;;7366465;19;20431;-41
2021/12/31 07:36:30;;;;;;;2.73;2.40;;;10.90;83.30;;;;;;7359431;19;20403;-41
2021/12/31 07:39:06;;;;;;;3.17;2.10;;;10.90;83.20;;;;;;7361300;19;20455;-41
2021/12/31 07:41:35;;;;;;;2.23;1.60;;;11.00;83.20;;;;;;7367426;19;20368;-41
2021/12/31 07:44:06;;;;;;;2.33;2.13;;;11.00;83.10;;;;;;7368964;19;20395;-41
2021/12/31 07:46:35;;;;;;;2.33;2.00;;;11.00;83.00;;;;;;7372710;19;20385;-41
2021/12/31 07:49:08;;;;;;;2.47;1.90;;;11.00;82.80;;;;;;7363759;19;20418;-42
2021/12/31 07:51:37;;;;;;;3.30;1.90;;;11.00;83.00;;;;;;7365691;19;20369;-41
2021/12/31 07:54:10;;;;;;;3.80;2.10;;;11.10;83.00;;;;;;7363188;19;21027;-41
2021/12/31 07:56:39;;;;;;;4.10;2.27;;;11.10;82.80;;;;;;7356235;19;20419;-41
2021/12/31 07:59:09;;;;;;;4.80;3.13;;;11.10;82.90;;;;;;7367605;19;20408;-41
2021/12/31 08:01:38;;;;;;;2.83;2.17;;;11.10;82.60;;;;;;7357695;19;20385;-41
2021/12/31 08:04:08;;;;;;;3.10;2.47;;;11.10;82.50;;;;;;7361022;19;20372;-42
2021/12/31 08:06:37;;;;;;;2.80;1.90;;;11.10;82.50;;;;;;7369464;19;20408;-41
2021/12/31 08:09:09;;;;;;;3.20;2.70;;;11.10;82.70;;;;;;7369069;19;20388;-41
2021/12/31 08:11:41;;;;;;;3.90;2.47;;;11.10;82.60;;;;;;7360008;19;20416;-41
2021/12/31 08:14:12;;;;;;;3.63;2.30;;;11.20;82.50;;;;;;7367467;19;20365;-41
2021/12/31 08:16:42;;;;;;;3.00;2.40;;;11.20;82.50;;;;;;7360029;19;20373;-41
2021/12/31 08:19:11;;;;;;;3.60;2.70;;;11.20;82.60;;;;;;7360673;19;20388;-37
2021/12/31 08:21:41;;;;;;;3.73;2.90;;;11.20;82.60;;;;;;7359273;19;21057;-36
2021/12/31 08:24:13;;;;;;;5.33;2.87;;;11.20;82.60;;;;;;7363211;19;20380;-37
2021/12/31 08:26:45;;;;;;;4.23;2.90;;;11.20;82.40;;;;;;7359378;19;20447;-36
2021/12/31 08:29:15;;;;;;;3.97;2.93;;;11.30;82.40;;;;;;7359359;19;20396;-36
2021/12/31 08:31:45;;;;;;;4.47;3.30;;;11.30;82.10;;;;;;7353766;19;20724;-36
2021/12/31 08:34:15;;;;;;;4.80;3.13;;;11.30;82.10;;;;;;7366942;19;20376;-36
2021/12/31 08:36:47;;;;;;;7.73;3.83;;;11.30;82.00;;;;;;7358036;19;21041;-36
2021/12/31 08:39:19;;;;;;;6.63;4.20;;;11.30;82.10;;;;;;7360892;19;20368;-37
2021/12/31 08:41:49;;;;;;;3.60;2.73;;;11.30;82.00;;;;;;7357900;19;20534;-36
2021/12/31 08:44:19;;;;;;;5.17;3.33;;;11.30;82.40;;;;;;7367120;19;20405;-37
2021/12/31 08:46:49;;;;;;;4.60;2.87;;;11.30;82.30;;;;;;7363334;19;20412;-36
2021/12/31 08:49:19;;;;;;;4.73;3.50;;;11.40;82.10;;;;;;7357112;19;20405;-36
2021/12/31 08:51:49;;;;;;;4.33;3.30;;;11.40;82.20;;;;;;7356825;19;20373;-36
2021/12/31 08:54:21;;;;;;;5.03;3.27;;;11.40;82.10;;;;;;7358099;19;20907;-37
2021/12/31 08:56:50;;;;;;;4.03;3.00;;;11.40;82.10;;;;;;7367176;19;20376;-37
2021/12/31 08:59:20;;;;;;;4.30;3.57;;;11.50;81.80;;;;;;7365050;19;20368;-36
2021/12/31 09:01:50;;;;;;;4.83;3.20;;;11.50;81.70;;;;;;7358603;19;20383;-37
2021/12/31 09:04:20;;;;;;;5.10;3.40;;;11.60;81.50;;;;;;7366587;19;20379;-36
2021/12/31 09:06:49;;;;;;;7.57;3.60;;;11.70;81.90;;;;;;7350248;19;20376;-36
2021/12/31 09:09:21;;;;;;;4.80;3.37;;;12.80;80.80;;;;;;7366396;19;21044;-36
2021/12/31 09:11:51;;;;;;;3.73;2.80;;;14.70;73.80;;;;;;7352358;19;20962;-36
2021/12/31 09:14:20;;;;;;;4.10;2.83;;;16.70;66.80;;;;;;7369637;19;20380;-37
2021/12/31 09:16:50;;;;;;;7.87;2.80;;;18.10;59.40;;;;;;7360517;19;20941;-37
2021/12/31 09:19:20;;;;;;;3.00;2.57;;;18.70;56.90;;;;;;7370101;19;20898;-37
2021/12/31 09:21:49;;;;;;;7.20;3.00;;;19.40;56.20;;;;;;7361215;19;20816;-41
2021/12/31 09:24:22;;;;;;;4.63;3.13;;;;;;;;;;7372683;19;20408;-41
2021/12/31 09:26:51;;;;;;;3.70;2.50;;;;;;;;;;7363685;19;21005;-41
2021/12/31 09:29:23;;;;;;;3.57;3.23;;;;;;;;;;7373743;19;20376;-40
2021/12/31 09:31:53;;;;;;;4.07;3.47;;;20.00;54.80;;;;;;7368439;19;20387;-40
2021/12/31 09:34:23;;;;;;;4.00;3.30;;;17.50;56.70;;;;;;7361396;19;21084;-41
2021/12/31 09:36:52;;;;;;;3.70;2.93;;;16.40;59.40;;;;;;7366309;19;20419;-41
2021/12/31 09:39:24;;;;;;;3.50;3.13;;;15.40;62.70;;;;;;7367254;19;20478;-40
2021/12/31 09:41:54;;;;;;;3.13;2.53;;;14.80;65.30;;;;;;7359025;19;20364;-41
2021/12/31 09:44:24;;;;;;;3.93;3.47;;;14.40;66.90;;;;;;7363940;19;20398;-41
2021/12/31 09:46:53;;;;;;;6.17;3.43;;;14.10;68.50;;;;;;7359991;19;20917;-40
2021/12/31 09:49:23;;;;;;;3.20;2.90;;;13.90;69.50;;;;;;7363877;19;20419;-41
2021/12/31 09:51:54;;;;;;;3.57;3.17;;;13.70;70.70;;;;;;7363939;19;20406;-41
2021/12/31 09:54:26;;;;;;;5.73;4.20;;;13.50;71.30;;;;;;7357138;19;20368;-41
2021/12/31 09:56:56;;;;;;;7.40;4.73;;;13.40;72.00;;;;;;7367391;19;20395;-40
2021/12/31 09:59:27;;;;;;;6.83;3.70;;;13.30;72.40;;;;;;7374458;19;20364;-41
2021/12/31 10:01:57;;;;;;;6.80;4.83;;;13.20;73.20;;;;;;7374325;19;20368;-41
2021/12/31 10:04:47;;;;;;;4.23;3.03;;;13.20;73.50;;;;;;7371058;19;20921;-41
2021/12/31 10:07:21;;;;;;;4.00;2.80;;;13.10;73.80;;;;;;7371590;19;20746;-41
2021/12/31 10:10:21;;;;;;;3.37;2.83;;;13.00;74.10;;;;;;7373444;19;20481;-42
2021/12/31 10:12:52;;;;;;;3.10;2.40;;;;;;;;;;7370280;19;20395;-41
2021/12/31 10:15:26;;;;;;;5.20;3.40;;;12.80;74.20;;;;;;7366709;19;20364;-41
2021/12/31 10:17:56;;;;;;;5.57;3.50;;;12.80;75.20;;;;;;7371785;19;20902;-41
2021/12/31 10:20:26;;;;;;;3.50;3.17;;;12.80;75.60;;;;;;7365273;19;20364;-41
2021/12/31 10:23:15;;;;;;;5.23;4.20;;;12.80;75.80;;;;;;7371058;19;20750;-41
2021/12/31 10:25:48;;;;;;;6.67;4.73;;;12.80;75.80;;;;;;7364794;19;20364;-42
2021/12/31 10:28:20;;;;;;;7.50;4.93;;;12.80;75.90;;;;;;7375843;19;21324;-41
2021/12/31 10:30:51;;;;;;;6.77;5.67;;;12.80;76.10;;;;;;7374486;19;20381;-41
2021/12/31 10:33:20;;;;;;;6.20;4.37;;;12.80;76.10;;;;;;7371942;19;20863;-41
2021/12/31 10:35:50;;;;;;;5.73;3.93;;;12.90;76.10;;;;;;7362408;19;21001;-41
2021/12/31 10:38:20;;;;;;;4.70;3.50;;;12.90;76.10;;;;;;7362029;19;20937;-41
2021/12/31 10:40:53;;;;;;;10.43;7.77;;;12.90;75.90;;;;;;7372578;19;20387;-39
2021/12/31 10:43:25;;;;;;;7.27;3.90;;;12.90;76.10;;;;;;7368067;19;20379;-41
2021/12/31 10:45:59;;;;;;;5.00;3.50;;;12.90;75.90;;;;;;7374897;19;20372;-41
2021/12/31 10:48:44;;;;;;;4.73;3.47;;;12.90;76.00;;;;;;7373823;19;21268;-41
2021/12/31 10:51:17;;;;;;;7.10;3.57;;;12.90;76.30;;;;;;7375167;19;20383;-41
2021/12/31 10:53:51;;;;;;;4.10;2.83;;;12.80;76.50;;;;;;7374200;19;20484;-41
2021/12/31 10:56:24;;;;;;;4.40;3.93;;;12.90;76.50;;;;;;7363652;19;20368;-41
2021/12/31 10:59:03;;;;;;;5.40;3.63;;;12.90;76.30;;;;;;7370220;19;20418;-41
2021/12/31 11:01:32;;;;;;;5.40;3.33;;;12.90;76.30;;;;;;7365919;19;20387;-41
2021/12/31 11:04:02;;;;;;;5.50;3.80;;;13.00;76.30;;;;;;7366361;19;20384;-41
2021/12/31 11:06:32;;;;;;;5.20;3.70;;;13.00;76.40;;;;;;7371768;19;20367;-41
2021/12/31 11:09:06;;;;;;;4.00;3.17;;;13.20;76.40;;;;;;7367617;19;20950;-41
2021/12/31 11:11:39;;;;;;;3.97;2.77;;;15.10;72.50;;;;;;7370036;19;20428;-41
2021/12/31 11:14:09;;;;;;;2.57;2.37;;;17.80;61.20;;;;;;7367586;19;20912;-41
2021/12/31 11:16:41;;;;;;;4.73;2.40;;;20.70;56.40;;;;;;7374288;19;20395;-40
2021/12/31 11:19:12;;;;;;;2.70;2.50;;;22.80;49.20;;;;;;7362083;19;20383;-40
2021/12/31 11:21:45;;;;;;;3.67;3.37;;;24.30;46.30;;;;;;7367629;19;21024;-40
2021/12/31 11:24:31;;;;;;;3.07;2.57;;;25.40;44.30;;;;;;7363307;19;20384;-40
2021/12/31 11:27:34;;;;;;;3.07;2.37;;;26.10;42.20;;;;;;7368699;19;20363;-40
2021/12/31 11:30:07;;;;;;;2.40;2.00;;;26.30;40.70;;;;;;7371855;19;20372;-40
2021/12/31 11:32:56;;;;;;;2.13;1.83;;;26.50;41.10;;;;;;7367098;19;20993;-40
2021/12/31 11:35:37;;;;;;;2.40;2.20;;;26.60;40.40;;;;;;7367898;19;20489;-40
2021/12/31 11:38:10;;;;;;;3.10;2.33;;;24.40;42.70;;;;;;7365038;19;20415;-40
2021/12/31 11:40:45;;;;;;;2.67;2.00;;;22.10;46.70;;;;;;7372074;19;20836;-40
2021/12/31 11:43:27;;;;;;;2.50;2.10;;;20.20;50.40;;;;;;7367760;19;20451;-40
2021/12/31 11:46:34;;;;;;;2.67;2.00;;;18.70;53.80;;;;;;7368410;19;20376;-40
2021/12/31 11:49:05;;;;;;;2.90;2.37;;;17.50;56.50;;;;;;7367170;19;20438;-40
2021/12/31 11:51:39;;;;;;;2.50;2.30;;;16.70;58.60;;;;;;7362973;19;20384;-40
2021/12/31 11:54:19;;;;;;;3.00;2.40;;;16.00;60.80;;;;;;7370381;19;21139;-40
2021/12/31 11:57:14;;;;;;;2.33;2.07;;;15.70;62.40;;;;;;7371469;19;20733;-40
2021/12/31 12:00:01;;;;;;;2.43;2.23;;;15.50;63.40;;;;;;7368258;19;20368;-40
2021/12/31 12:02:41;;;;;;;2.00;1.90;;;15.30;64.40;;;;;;7367998;19;20856;-40
2021/12/31 12:05:16;;;;;;;5.13;3.97;;;15.20;65.30;;;;;;7366820;19;20368;-40
2021/12/31 12:07:52;;;;;;;3.77;2.87;;;15.20;65.30;;;;;;7371149;19;20388;-40
2021/12/31 12:10:32;;;;;;;2.40;2.20;;;15.30;65.50;;;;;;7357148;19;20415;-40
2021/12/31 12:13:25;;;;;;;1.80;1.70;;;15.40;65.40;;;;;;7368580;19;20851;-40
2021/12/31 12:15:58;;;;;;;3.93;2.17;;;15.40;65.70;;;;;;7365127;19;20384;-40
2021/12/31 12:19:00;;;;;;;2.87;2.20;;;15.30;65.50;;;;;;7370550;19;20715;-40
2021/12/31 12:21:37;;;;;;;2.43;1.90;;;15.30;65.30;;;;;;7366607;19;20416;-40
2021/12/31 12:24:09;;;;;;;2.13;1.90;;;15.40;65.70;;;;;;7364693;19;20380;-40
2021/12/31 12:26:38;;;;;;;2.60;1.63;;;15.30;65.90;;;;;;7359589;19;20407;-40
2021/12/31 12:29:08;;;;;;;2.90;2.20;;;15.30;66.20;;;;;;7345060;19;20368;-40
2021/12/31 12:31:45;;;;;;;3.93;2.30;;;15.30;66.70;;;;;;7364096;19;20380;-40
2021/12/31 12:34:14;;;;;;;1.70;1.60;;;15.20;66.70;;;;;;7368211;19;20376;-40
2021/12/31 12:36:48;;;;;;;2.77;1.80;;;15.20;66.90;;;;;;7369753;19;20747;-40
2021/12/31 12:39:18;;;;;;;2.10;1.90;;;15.20;66.80;;;;;;7368267;19;20764;-40
2021/12/31 12:41:52;;;;;;;2.27;1.60;;;15.30;66.60;;;;;;7373074;19;20404;-40
2021/12/31 12:44:21;;;;;;;2.53;1.63;;;15.30;66.40;;;;;;7373980;19;20376;-40
2021/12/31 12:47:01;;;;;;;2.03;1.63;;;15.30;66.50;;;;;;7371896;19;20392;-40
2021/12/31 12:49:30;;;;;;;7.67;4.90;;;15.40;66.30;;;;;;7371502;19;20375;-40
2021/12/31 12:52:13;;;;;;;1.80;1.40;;;15.40;66.40;;;;;;7370551;19;20758;-40
2021/12/31 12:54:43;;;;;;;2.13;1.70;;;15.60;66.10;;;;;;7362899;19;20480;-40
2021/12/31 12:57:12;;;;;;;1.67;1.53;;;15.70;66.00;;;;;;7372867;19;20391;-41
2021/12/31 12:59:45;;;;;;;2.20;2.00;;;15.70;65.80;;;;;;7373793;19;20372;-40
2021/12/31 13:02:21;;;;;;;1.97;1.80;;;15.80;64.80;;;;;;7375082;19;20383;-40
2021/12/31 13:04:50;;;;;;;2.00;1.80;;;15.90;64.00;;;;;;7369126;19;20385;-40
2021/12/31 13:07:24;;;;;;;1.60;1.40;;;16.00;63.70;;;;;;7367466;19;20922;-40
2021/12/31 13:10:06;;;;;;;1.33;1.20;;;16.10;63.60;;;;;;7372247;19;20407;-40
2021/12/31 13:12:38;;;;;;;1.50;1.30;;;16.10;63.50;;;;;;7366624;19;20383;-40